To NAV CANADA Home Page Login to a new session Search on AWWS site Disclaimer Vers la page française équivalente Tips FAQ What's new on the site To the Forecasts and Observations / NOTAM section To "File a Flight Plan" website Publications and other links Update of the User's profile FIC Telephone Numbers My Weather Data Folder Route Weather Data Regional Weather Data Local Weather Data To the Forecasts and Observations / NOTAM section
Request Generated 10/21/2018 at 03:28:58 UTC . Weather information available at that time is displayed.


Save this request

METAR/TAF

KAMLOOPS/BC    

METAR CYKA 210300Z 00000KT 40SM BKN260 07/04 A3017 RMK CI6 SLP231=
METAR CYKA 210200Z 00000KT 40SM BKN260 09/05 A3016 RMK CI5 SLP228=
METAR CYKA 210100Z VRB02KT 40SM BKN260 10/05 A3015 RMK CI6 SLP223=

TAF CYKA 210038Z 2101/2113 VRB03KT P6SM BKN250
RMK NXT FCST BY 210700Z=

CLINTON BC/AUTO OBS    

CWCL - METAR not available

CWCL - No TAF is issued for this station

LYTTON BC/OBS    (show WxCam)

METAR CWLY 210300Z AUTO 00000KT 9SM CLR 08/05 A3014 RMK SLP215=
METAR CWLY 210200Z AUTO 00000KT 9SM CLR 09/05 A3013 RMK SLP212=
METAR CWLY 210100Z AUTO 00000KT 9SM CLR 11/05 A3013 RMK SLP210=

CWLY - No TAF is issued for this station

CLINTON/BLEIBLER RANCH/BC    (show WxCam)

METAR CYIN 210300Z AUTO VRB02KT 9SM CLR 02/M00 A3017 RMK SLP255=
METAR CYIN 210200Z AUTO 22004KT 9SM CLR 04/01 A3018 RMK SLP254=
METAR CYIN 210100Z AUTO 11002KT 9SM CLR 09/01 A3018 RMK SLP245=

CYIN - No TAF is issued for this station



Your time UTC time
Weather data provided by Environment Canada and NAV CANADA